Pauls Valley, Oklahoma
Current Conditions -  °F | °C
As of 10:35 PM on Thursday 20 Nov 2014 (Local Time) from KPVJ Reporting Station
Clear Clear  
Wind Chill: 47°   Ceiling: Unl
Heat Index: 49°   Visibility: 10mi
Dew Point: 46°   Wind: 6mph
Humidity: 86%   Direction: 120°ESE
Pressure: 30.05"   Gusts: NA
Location:  34.74°N, 97.22°W
Report Text: KPVJ 210435Z AUTO 12005KT 10SM CLR 10/08 A3005 RMK AO2 T00970075
Loading
Personal Weather Stations






























Interactive Weather Map New forecast layout! Learn more

10-Day Weather Forecast

Advertisements
Track Severe Weather on mobile